Gilmer, Texas
Current Conditions -  °F | °C
As of 9:35 PM on Sunday 21 Dec 2014 (Local Time) from KOSA Reporting Station
Overcast Overcast  
Wind Chill: 50°   Ceiling: 1800
Heat Index: 50°   Visibility: 10mi
Dew Point: 44°   Wind: 8mph
Humidity: 81%   Direction: 160°SSE
Pressure: 29.86"   Gusts: NA
Location:  32.73°N, 94.95°W
Report Text: KOSA 220335Z AUTO 16007KT 10SM BKN018 OVC026 10/07 A2986 RMK AO1 T01000069
Loading
Personal Weather Stations






























Interactive Weather Map New forecast layout! Learn more

10-Day Weather Forecast

Advertisements
Track Severe Weather on mobile